createdAt,value
2018-02-15T00:01:27.895Z,52.53
2018-02-15T00:11:29.496Z,46.30
2018-02-15T00:21:31.046Z,54.77
2018-02-15T00:31:32.643Z,55.33
2018-02-15T00:41:34.164Z,58.90
2018-02-15T00:51:36.991Z,59.07
2018-02-15T01:01:39.170Z,56.00
2018-02-15T01:11:40.688Z,56.20
2018-02-15T01:21:42.317Z,64.90
2018-02-15T01:31:43.990Z,74.83
2018-02-15T01:41:45.491Z,61.33
2018-02-15T01:51:47.057Z,61.30
2018-02-15T02:01:49.368Z,62.23
2018-02-15T02:11:50.873Z,69.50
2018-02-15T02:21:53.280Z,68.80
2018-02-15T02:31:54.808Z,79.03
2018-02-15T02:41:56.321Z,66.73
2018-02-15T02:51:57.939Z,73.77
2018-02-15T03:01:59.518Z,61.23
2018-02-15T03:12:01.047Z,59.30
2018-02-15T03:22:02.577Z,68.83
2018-02-15T03:32:04.123Z,78.70
2018-02-15T03:42:05.640Z,62.93
2018-02-15T03:52:07.202Z,65.27
2018-02-15T04:02:08.754Z,74.63
2018-02-15T04:12:10.295Z,63.50
2018-02-15T04:22:12.623Z,64.43
2018-02-15T04:32:14.206Z,67.07
2018-02-15T04:42:16.485Z,58.70
2018-02-15T04:52:18.005Z,58.30
2018-02-15T05:02:19.559Z,60.30
2018-02-15T05:12:21.067Z,60.30
2018-02-15T05:22:22.590Z,62.57
2018-02-15T05:32:24.689Z,60.07
2018-02-15T05:42:26.290Z,55.73
2018-02-15T05:52:27.816Z,57.93
2018-02-15T06:02:29.424Z,58.50
2018-02-15T06:12:30.910Z,60.40
2018-02-15T06:22:32.457Z,62.60
2018-02-15T06:32:33.958Z,60.90
2018-02-15T06:42:35.485Z,49.90
2018-02-15T06:52:37.116Z,45.23
2018-02-15T07:02:39.091Z,46.83
2018-02-15T07:12:40.658Z,52.07
2018-02-15T07:22:42.985Z,46.97
2018-02-15T07:32:45.213Z,47.77
2018-02-15T07:42:46.801Z,38.17
2018-02-15T07:52:48.334Z,34.83
2018-02-15T08:02:49.990Z,39.57
2018-02-15T08:12:52.426Z,50.33
2018-02-15T08:22:54.103Z,45.37
2018-02-15T08:32:56.525Z,45.63
2018-02-15T08:42:58.821Z,52.43
2018-02-15T08:53:00.553Z,50.37
2018-02-15T09:03:02.809Z,46.00
2018-02-15T09:13:04.343Z,49.23
2018-02-15T09:23:05.958Z,50.50
2018-02-15T09:33:08.253Z,54.60
2018-02-15T09:43:09.818Z,37.77
2018-02-15T09:53:11.370Z,44.77
2018-02-15T10:03:12.936Z,36.23
2018-02-15T10:13:14.496Z,39.20
2018-02-15T10:23:15.996Z,39.40
2018-02-15T10:33:17.520Z,35.63
2018-02-15T10:43:19.316Z,59.97
2018-02-15T10:53:20.863Z,39.77
2018-02-15T11:03:28.461Z,46.13
2018-02-15T11:13:30.032Z,38.97
2018-02-15T11:23:32.321Z,41.27
2018-02-15T11:33:33.824Z,37.87
2018-02-15T11:43:35.388Z,40.87
2018-02-15T11:53:36.930Z,57.63
2018-02-15T12:03:38.449Z,47.20
2018-02-15T12:13:40.719Z,42.77
2018-02-15T12:23:42.265Z,42.10
2018-02-15T12:33:44.505Z,47.90
2018-02-15T12:43:46.070Z,46.90
2018-02-15T12:53:48.332Z,54.77
2018-02-15T13:03:49.908Z,45.83
2018-02-15T13:13:51.549Z,58.63
2018-02-15T13:23:53.161Z,65.93
2018-02-15T13:33:54.727Z,59.63
2018-02-15T13:43:56.280Z,94.83
2018-02-15T13:53:57.805Z,73.03
2018-02-15T14:03:59.307Z,62.70
2018-02-15T14:14:00.828Z,61.00
2018-02-15T14:24:02.549Z,79.63
2018-02-15T14:34:04.081Z,71.83
2018-02-15T14:44:07.205Z,74.97
2018-02-15T14:54:08.981Z,66.30
2018-02-15T15:04:10.544Z,74.57
2018-02-15T15:14:12.865Z,70.17
2018-02-15T15:24:14.426Z,79.07
2018-02-15T15:34:15.985Z,71.20
2018-02-15T15:44:17.669Z,75.53
2018-02-15T15:54:19.285Z,69.93
2018-02-15T16:04:21.073Z,74.00
2018-02-15T16:14:22.698Z,80.43
2018-02-15T16:24:24.311Z,73.47
2018-02-15T16:34:25.974Z,68.17
2018-02-15T16:44:27.606Z,74.07
2018-02-15T16:54:29.136Z,73.53
2018-02-15T17:04:30.673Z,73.87
2018-02-15T17:14:33.049Z,63.97
2018-02-15T17:24:34.710Z,70.00
2018-02-15T17:34:36.309Z,77.90
2018-02-15T17:44:37.858Z,75.63
2018-02-15T17:54:39.503Z,67.53
2018-02-15T18:04:41.044Z,75.67
2018-02-15T18:14:43.270Z,81.97
2018-02-15T18:24:44.856Z,83.50
2018-02-15T18:34:46.605Z,86.17
2018-02-15T18:44:48.902Z,73.23
2018-02-15T18:54:50.481Z,78.60
2018-02-15T19:04:52.176Z,74.73
2018-02-15T19:14:53.954Z,83.57
2018-02-15T19:24:55.544Z,76.90
2018-02-15T19:34:57.944Z,77.47
2018-02-15T19:44:59.612Z,71.10
2018-02-15T19:55:01.165Z,66.20
2018-02-15T20:05:03.486Z,87.63
2018-02-15T20:15:05.840Z,98.30
2018-02-15T20:25:08.580Z,62.77
2018-02-15T20:35:10.201Z,77.07
2018-02-15T20:45:11.719Z,72.93
2018-02-15T20:55:20.172Z,65.73
2018-02-15T21:05:22.774Z,78.80
2018-02-15T21:15:24.416Z,68.70
2018-02-15T21:25:26.768Z,79.10
2018-02-15T21:35:28.401Z,67.07
2018-02-15T21:45:29.933Z,79.93
2018-02-15T21:55:40.593Z,79.60
2018-02-15T22:05:42.421Z,85.40
2018-02-15T22:15:43.980Z,67.73
2018-02-15T22:25:45.819Z,60.80
2018-02-15T22:35:47.469Z,65.70
2018-02-15T22:45:49.722Z,73.10
2018-02-15T22:55:51.260Z,65.97
2018-02-15T23:05:52.830Z,58.77
2018-02-15T23:15:54.447Z,68.90
2018-02-15T23:25:56.168Z,61.77
2018-02-15T23:35:57.769Z,60.13
2018-02-15T23:45:59.439Z,55.47
2018-02-15T23:56:00.994Z,60.53
